Time;durP1;ratioP1;P1;durP2;ratioP2;P2;SDS_P1;SDS_P2;PMS_P1;PMS_P2;Temp;Humidity;BMP_temperature;BMP_pressure;BME280_temperature;BME280_humidity;BME280_pressure;Samples;Min_cycle;Max_cycle;Signal;HPM_P1;HPM_P2
2023/07/03 00:00:25;;;;;;;17.65;4.60;;;;;;;;;;5090634;28;20897;-78
2023/07/03 00:02:52;;;;;;;16.20;4.53;;;;;;;;;;5056812;28;20425;-78
2023/07/03 00:05:19;;;;;;;12.80;4.95;;;;;;;;;;5087712;28;20429;-77
2023/07/03 00:07:48;;;;;;;13.68;4.68;;;;;;;;;;5090408;28;20394;-77
2023/07/03 00:10:14;;;;;;;17.35;4.95;;;;;;;;;;5070501;28;20418;-78
2023/07/03 00:12:40;;;;;;;15.45;4.63;;;;;;;;;;5076924;28;20442;-78
2023/07/03 00:15:07;;;;;;;13.57;4.20;;;;;;;;;;5093122;28;20424;-79
2023/07/03 00:17:33;;;;;;;14.75;4.88;;;;;;;;;;5094456;28;20437;-79
2023/07/03 00:19:59;;;;;;;12.52;4.10;;;;;;;;;;5091358;28;20508;-78
2023/07/03 00:22:25;;;;;;;13.65;5.32;;;;;;;;;;5094265;28;20397;-78
2023/07/03 00:24:51;;;;;;;15.00;4.18;;;;;;;;;;5090733;28;20414;-79
2023/07/03 00:27:18;;;;;;;11.95;4.15;;;;;;;;;;5077186;28;20402;-79
2023/07/03 00:29:44;;;;;;;11.02;3.78;;;;;;;;;;5093449;28;20402;-79
2023/07/03 00:32:10;;;;;;;13.13;4.03;;;;;;;;;;5077074;28;20425;-78
2023/07/03 00:34:36;;;;;;;13.00;4.00;;;;;;;;;;5092938;28;20421;-78
2023/07/03 00:37:02;;;;;;;12.68;4.25;;;;;;;;;;5058743;28;20417;-78
2023/07/03 00:39:28;;;;;;;15.50;4.03;;;;;;;;;;5092172;28;20487;-78
2023/07/03 00:41:54;;;;;;;14.80;4.32;;;;;;;;;;5092876;28;20453;-78
2023/07/03 00:44:20;;;;;;;11.87;4.10;;;;;;;;;;5058661;28;20410;-78
2023/07/03 00:46:48;;;;;;;14.35;3.83;;;;;;;;;;5092683;28;20402;-78
2023/07/03 00:49:15;;;;;;;11.37;3.90;;;;;;;;;;5093509;28;20880;-78
2023/07/03 00:51:43;;;;;;;13.38;4.22;;;;;;;;;;5072456;28;20482;-79
2023/07/03 00:54:10;;;;;;;13.25;3.95;;;;;;;;;;5088496;28;20410;-78
2023/07/03 00:56:37;;;;;;;16.20;4.18;;;;;;;;;;5073631;28;20482;-78
2023/07/03 00:59:03;;;;;;;12.75;3.70;;;;;;;;;;5079121;28;20411;-78
2023/07/03 01:01:37;;;;;;;14.60;3.70;;;16.40;99.90;;;;;;5074341;28;20418;-79
2023/07/03 01:04:12;;;;;;;11.13;3.58;;;;;;;;;;5090573;28;20421;-79
2023/07/03 01:06:56;;;;;;;13.52;4.22;;;16.10;99.90;;;;;;5075800;28;20435;-79
2023/07/03 01:09:26;;;;;;;12.65;3.67;;;16.60;99.90;;;;;;5074743;28;20505;-79
2023/07/03 01:11:53;;;;;;;12.93;3.75;;;;;;;;;;5073678;28;20940;-79
2023/07/03 01:14:20;;;;;;;8.07;3.47;;;16.40;99.90;;;;;;5093505;28;20398;-79
2023/07/03 01:16:48;;;;;;;11.55;4.10;;;16.60;99.90;;;;;;5086661;28;20411;-79
2023/07/03 01:19:22;;;;;;;13.23;3.67;;;16.50;99.90;;;;;;5080810;28;20422;-78
2023/07/03 01:21:58;;;;;;;11.43;3.40;;;;;;;;;;5079873;28;20436;-79
2023/07/03 01:24:39;;;;;;;11.65;4.00;;;16.60;99.90;;;;;;5072381;28;20509;-79
2023/07/03 01:27:08;;;;;;;11.63;3.50;;;16.40;99.90;;;;;;5092085;28;20437;-78
2023/07/03 01:29:35;;;;;;;10.00;3.55;;;;;;;;;;5075327;28;20426;-78
2023/07/03 01:32:07;;;;;;;12.05;3.65;;;16.40;99.90;;;;;;5092220;28;20497;-79
2023/07/03 01:34:33;;;;;;;11.65;3.55;;;;;;;;;;5063209;28;20903;-78
2023/07/03 01:37:01;;;;;;;12.00;3.60;;;16.40;99.90;;;;;;5084276;28;20414;-79
2023/07/03 01:39:27;;;;;;;10.98;3.42;;;;;;;;;;5073360;28;20467;-79
2023/07/03 01:41:55;;;;;;;13.27;3.53;;;16.80;99.90;;;;;;5092819;28;20401;-79
2023/07/03 01:44:21;;;;;;;12.75;3.72;;;;;;;;;;5071526;28;20403;-79
2023/07/03 01:46:47;;;;;;;9.88;3.55;;;;;;;;;;5065116;28;20414;-79
2023/07/03 01:49:14;;;;;;;14.30;3.13;;;16.70;99.90;;;;;;5057278;28;21016;-79
2023/07/03 01:51:52;;;;;;;11.40;3.53;;;;;;;;;;5056952;28;20509;-79
2023/07/03 01:54:24;;;;;;;10.63;3.05;;;;;;;;;;5092448;28;20398;-79
2023/07/03 01:56:51;;;;;;;9.05;3.00;;;16.50;99.90;;;;;;5090922;28;20437;-79
2023/07/03 01:59:21;;;;;;;11.50;2.85;;;;;;;;;;5090997;28;20440;-79
2023/07/03 02:01:47;;;;;;;12.77;3.33;;;;;;;;;;5091700;28;20857;-79
2023/07/03 02:04:37;;;;;;;10.70;3.00;;;16.60;99.90;;;;;;5090508;28;20445;-79
2023/07/03 02:07:04;;;;;;;8.68;3.28;;;;;;;;;;5060511;28;20425;-79
2023/07/03 02:09:30;;;;;;;9.03;3.30;;;;;;;;;;5089323;28;20448;-80
2023/07/03 02:11:57;;;;;;;13.00;3.42;;;;;;;;;;5092089;28;20428;-78
2023/07/03 02:14:24;;;;;;;8.95;2.80;;;;;;;;;;5075378;28;20409;-78
2023/07/03 02:16:52;;;;;;;8.52;2.55;;;16.40;99.90;;;;;;5070153;28;20418;-77
2023/07/03 02:19:20;;;;;;;11.95;2.83;;;;;;;;;;5084334;28;20923;-78
2023/07/03 02:21:47;;;;;;;9.68;2.60;;;;;;;;;;5072585;28;20501;-79
2023/07/03 02:24:13;;;;;;;8.73;2.40;;;16.30;99.90;;;;;;5073896;28;20409;-78
2023/07/03 02:26:39;;;;;;;8.50;2.58;;;;;;;;;;5073761;28;20426;-78
2023/07/03 02:29:05;;;;;;;9.87;2.73;;;;;;;;;;5090389;28;20767;-79
2023/07/03 02:31:31;;;;;;;10.93;2.63;;;;;;;;;;5072413;28;20444;-79
2023/07/03 02:33:57;;;;;;;8.90;2.30;;;;;;;;;;5090696;28;20893;-79
2023/07/03 02:36:29;;;;;;;8.73;2.97;;;;;;;;;;5074343;28;20913;-79
2023/07/03 02:38:55;;;;;;;9.85;2.85;;;;;;;;;;5090159;28;20413;-79
2023/07/03 02:41:22;;;;;;;9.45;2.88;;;;;;;;;;5073226;28;20456;-78
2023/07/03 02:43:48;;;;;;;10.52;2.40;;;;;;;;;;5088157;28;20418;-78
2023/07/03 02:46:15;;;;;;;10.88;2.63;;;;;;;;;;5072314;28;20421;-79
2023/07/03 02:48:41;;;;;;;12.02;3.05;;;;;;;;;;5090772;28;20425;-79
2023/07/03 02:51:07;;;;;;;8.70;2.58;;;;;;;;;;5073009;28;20432;-79
2023/07/03 02:53:33;;;;;;;7.57;2.47;;;;;;;;;;5074539;28;20483;-79
2023/07/03 02:55:59;;;;;;;10.88;2.45;;;;;;;;;;5071133;28;20548;-79
2023/07/03 02:58:26;;;;;;;7.50;2.38;;;;;;;;;;5083780;28;20555;-79
2023/07/03 03:00:53;;;;;;;9.98;2.50;;;15.70;99.90;;;;;;5086998;28;20429;-79
2023/07/03 03:03:19;;;;;;;9.25;2.80;;;;;;;;;;5083441;28;20447;-79
2023/07/03 03:05:45;;;;;;;8.32;2.50;;;;;;;;;;5054557;28;20403;-79
2023/07/03 03:08:14;;;;;;;7.78;2.53;;;;;;;;;;5068622;28;20482;-78
2023/07/03 03:10:40;;;;;;;12.55;2.67;;;;;;;;;;5071145;28;20425;-79
2023/07/03 03:13:06;;;;;;;9.82;2.72;;;;;;;;;;5090587;28;20445;-79
2023/07/03 03:15:35;;;;;;;8.07;2.20;;;15.40;99.90;;;;;;5090328;28;20393;-78
2023/07/03 03:18:02;;;;;;;9.73;2.15;;;;;;;;;;5090333;28;20521;-78
2023/07/03 03:20:28;;;;;;;10.40;2.67;;;;;;;;;;5072327;28;20461;-79
2023/07/03 03:22:54;;;;;;;8.75;2.28;;;;;;;;;;5058079;28;20890;-80
2023/07/03 03:25:20;;;;;;;9.88;2.50;;;;;;;;;;5067867;28;20431;-80
2023/07/03 03:27:46;;;;;;;10.33;2.53;;;;;;;;;;5090806;28;20418;-80
2023/07/03 03:30:12;;;;;;;10.88;2.45;;;;;;;;;;5074354;28;20459;-80
2023/07/03 03:32:39;;;;;;;8.88;2.40;;;;;;;;;;5074053;28;20834;-79
2023/07/03 03:35:06;;;;;;;10.23;2.55;;;;;;;;;;5090832;28;20417;-80
2023/07/03 03:37:32;;;;;;;10.77;2.55;;;;;;;;;;5091320;28;20394;-80
2023/07/03 03:39:58;;;;;;;10.88;2.63;;;;;;;;;;5074408;28;20394;-80
2023/07/03 03:42:24;;;;;;;9.93;2.35;;;;;;;;;;5074630;28;20405;-81
2023/07/03 03:44:50;;;;;;;10.00;2.40;;;;;;;;;;5090421;28;20481;-80
2023/07/03 03:47:16;;;;;;;13.17;3.30;;;;;;;;;;5091021;28;20532;-81
2023/07/03 03:49:42;;;;;;;10.32;2.30;;;;;;;;;;5091146;28;20451;-81
2023/07/03 03:52:08;;;;;;;11.52;2.97;;;;;;;;;;5097476;28;20416;-81
2023/07/03 03:54:34;;;;;;;7.10;2.30;;;;;;;;;;5111230;28;20400;-79
2023/07/03 03:57:00;;;;;;;8.50;2.72;;;;;;;;;;5110859;28;20479;-79
2023/07/03 03:59:26;;;;;;;9.80;2.60;;;;;;;;;;5100108;28;20998;-79
2023/07/03 04:01:52;;;;;;;10.85;2.30;;;;;;;;;;5101609;28;20502;-80
2023/07/03 04:04:18;;;;;;;11.02;2.58;;;;;;;;;;5053399;28;20465;-79
2023/07/03 04:06:44;;;;;;;8.68;2.60;;;;;;;;;;5059091;28;20490;-79
2023/07/03 04:09:11;;;;;;;9.13;2.57;;;;;;;;;;5072915;28;21005;-78
2023/07/03 04:11:37;;;;;;;10.45;2.53;;;;;;;;;;5089828;28;20428;-79
2023/07/03 04:14:03;;;;;;;9.63;2.90;;;;;;;;;;5071530;28;20485;-79
2023/07/03 04:16:31;;;;;;;11.85;2.65;;;15.00;99.90;;;;;;5088506;28;20482;-79
2023/07/03 04:18:57;;;;;;;10.20;2.55;;;;;;;;;;5089248;28;20417;-79
2023/07/03 04:21:23;;;;;;;6.82;2.47;;;;;;;;;;5087608;28;20763;-79
2023/07/03 04:23:49;;;;;;;9.15;2.70;;;;;;;;;;5089106;28;20935;-79
2023/07/03 04:26:15;;;;;;;12.35;2.40;;;;;;;;;;5072426;28;20440;-78
2023/07/03 04:28:42;;;;;;;8.90;2.30;;;;;;;;;;5072789;28;20425;-78
2023/07/03 04:31:08;;;;;;;11.15;2.25;;;;;;;;;;5088350;28;20457;-79
2023/07/03 04:33:34;;;;;;;8.23;2.40;;;;;;;;;;5089956;28;20398;-79
2023/07/03 04:36:00;;;;;;;10.20;2.50;;;;;;;;;;5090369;28;20464;-78
2023/07/03 04:38:26;;;;;;;9.23;2.58;;;;;;;;;;5089599;28;20421;-78
2023/07/03 04:40:53;;;;;;;8.15;2.25;;;;;;;;;;5082071;28;20852;-78
2023/07/03 04:43:19;;;;;;;9.00;2.42;;;;;;;;;;5089464;28;20501;-78
2023/07/03 04:45:47;;;;;;;14.33;2.77;;;;;;;;;;5090083;28;20402;-78
2023/07/03 04:48:13;;;;;;;8.82;2.55;;;;;;;;;;5089685;28;20406;-78
2023/07/03 04:50:39;;;;;;;9.48;2.85;;;;;;;;;;5070619;28;20500;-78
2023/07/03 04:53:05;;;;;;;8.73;2.72;;;;;;;;;;5087559;28;20413;-78
2023/07/03 04:55:32;;;;;;;9.13;2.80;;;15.10;99.90;;;;;;5071227;28;20438;-78
2023/07/03 04:57:59;;;;;;;8.98;2.35;;;;;;;;;;5084676;28;20403;-78
2023/07/03 05:00:27;;;;;;;11.20;2.63;;;;;;;;;;5092426;28;20426;-78
2023/07/03 05:02:56;;;;;;;10.38;2.90;;;15.30;99.90;;;;;;5090449;28;20884;-78
2023/07/03 05:05:22;;;;;;;9.80;2.85;;;;;;;;;;5092961;28;20417;-78
2023/07/03 05:07:49;;;;;;;9.20;2.65;;;;;;;;;;5074900;28;20493;-78
2023/07/03 05:10:16;;;;;;;7.88;2.53;;;15.40;99.90;;;;;;5069097;28;20418;-78
2023/07/03 05:12:42;;;;;;;9.98;2.78;;;;;;;;;;5078857;28;20467;-78
2023/07/03 05:15:10;;;;;;;14.63;3.00;;;15.70;99.90;;;;;;5084056;28;20763;-78
2023/07/03 05:17:38;;;;;;;8.57;2.30;;;;;;;;;;5072114;28;20418;-77
2023/07/03 05:20:08;;;;;;;10.25;2.45;;;;;;;;;;5091334;28;20425;-77
2023/07/03 05:22:39;;;;;;;9.10;3.10;;;16.00;99.90;;;;;;5086704;28;20498;-77
2023/07/03 05:25:07;;;;;;;9.77;2.15;;;15.90;99.90;;;;;;5087167;28;20575;-77
2023/07/03 05:27:34;;;;;;;8.85;2.60;;;;;;;;;;5090973;28;20418;-77
2023/07/03 05:30:00;;;;;;;8.90;2.50;;;;;;;;;;5076215;28;20398;-77
2023/07/03 05:32:26;;;;;;;11.52;2.80;;;;;;;;;;5085802;28;20429;-78
2023/07/03 05:34:52;;;;;;;9.75;2.65;;;;;;;;;;5075456;28;20495;-78
2023/07/03 05:37:19;;;;;;;9.70;2.80;;;;;;;;;;5086685;28;20430;-78
2023/07/03 05:39:49;;;;;;;11.27;2.65;;;;;;;;;;5086812;28;20421;-78
2023/07/03 05:42:18;;;;;;;12.48;2.92;;;;;;;;;;5067195;28;20499;-79
2023/07/03 05:44:45;;;;;;;8.45;2.35;;;;;;;;;;5072444;28;20438;-78
2023/07/03 05:47:12;;;;;;;11.45;2.95;;;;;;;;;;5074789;28;20422;-78
2023/07/03 05:49:38;;;;;;;10.88;2.70;;;;;;;;;;5073502;28;20813;-77
2023/07/03 05:52:04;;;;;;;9.77;2.60;;;;;;;;;;5072107;28;20430;-79
2023/07/03 05:54:30;;;;;;;9.43;2.50;;;;;;;;;;5084381;28;20770;-78
2023/07/03 05:57:00;;;;;;;11.43;2.80;;;;;;;;;;5083683;28;20523;-77
2023/07/03 05:59:27;;;;;;;11.65;2.70;;;;;;;;;;5081291;28;20816;-78
2023/07/03 06:01:53;;;;;;;11.00;2.75;;;;;;;;;;5067141;28;20933;-78
2023/07/03 06:04:22;;;;;;;8.40;2.60;;;;;;;;;;5090842;28;20418;-80
2023/07/03 06:06:48;;;;;;;9.70;2.20;;;;;;;;;;5070126;28;20449;-79
2023/07/03 06:09:14;;;;;;;9.63;2.08;;;;;;;;;;5073599;28;20473;-79
2023/07/03 06:11:40;;;;;;;10.77;2.40;;;;;;;;;;5088385;28;20518;-80
2023/07/03 06:14:12;;;;;;;10.70;2.30;;;;;;;;;;5059415;28;20426;-79
2023/07/03 06:16:39;;;;;;;9.02;2.22;;;;;;;;;;5084720;28;21060;-78
2023/07/03 06:19:05;;;;;;;7.65;1.83;;;;;;;;;;5107733;28;20414;-78
2023/07/03 06:21:31;;;;;;;8.13;2.05;;;;;;;;;;5073072;28;20421;-79
2023/07/03 06:23:57;;;;;;;10.10;2.17;;;;;;;;;;5070703;28;20460;-80
2023/07/03 06:26:23;;;;;;;7.70;2.70;;;;;;;;;;5056849;28;20983;-80
2023/07/03 06:28:49;;;;;;;12.93;2.63;;;;;;;;;;5091213;28;20504;-80
2023/07/03 06:31:15;;;;;;;12.80;2.95;;;15.80;99.90;;;;;;5088976;28;20422;-79
2023/07/03 06:33:41;;;;;;;13.40;2.72;;;;;;;;;;5090695;28;20414;-78
2023/07/03 06:36:07;;;;;;;12.38;2.90;;;;;;;;;;5062269;28;20419;-78
2023/07/03 06:38:33;;;;;;;14.18;2.90;;;;;;;;;;5071788;28;20395;-79
2023/07/03 06:41:00;;;;;;;14.50;3.47;;;;;;;;;;5071020;28;20454;-78
2023/07/03 06:43:26;;;;;;;10.55;2.75;;;;;;;;;;5089827;28;20556;-79
2023/07/03 06:45:52;;;;;;;10.00;3.03;;;;;;;;;;5091309;28;20804;-79
2023/07/03 06:48:18;;;;;;;11.65;2.95;;;;;;;;;;5087627;28;20517;-78
2023/07/03 06:50:44;;;;;;;12.70;3.13;;;;;;;;;;5072991;28;20940;-79
2023/07/03 06:53:10;;;;;;;12.88;3.30;;;;;;;;;;5089685;28;20442;-80
2023/07/03 06:55:36;;;;;;;12.60;3.42;;;;;;;;;;5090841;28;20416;-79
2023/07/03 06:58:03;;;;;;;15.77;3.40;;;;;;;;;;5061983;28;20419;-79
2023/07/03 07:00:29;;;;;;;11.18;3.00;;;;;;;;;;5063425;28;20508;-80
2023/07/03 07:02:55;;;;;;;10.27;2.67;;;;;;;;;;5073421;28;20414;-80
2023/07/03 07:05:21;;;;;;;14.10;3.38;;;;;;;;;;5072604;28;20987;-79
2023/07/03 07:07:47;;;;;;;12.88;3.25;;;;;;;;;;5071736;28;20812;-79
2023/07/03 07:10:13;;;;;;;12.30;2.50;;;;;;;;;;5071997;28;20945;-79
2023/07/03 07:12:39;;;;;;;12.85;3.05;;;;;;;;;;5079261;28;20419;-79
2023/07/03 07:15:06;;;;;;;14.27;3.10;;;;;;;;;;5095069;28;20410;-79
2023/07/03 07:17:32;;;;;;;11.30;2.70;;;;;;;;;;5087777;28;20475;-79
2023/07/03 07:19:59;;;;;;;12.10;3.15;;;;;;;;;;5087823;28;20774;-79
2023/07/03 07:22:26;;;;;;;12.00;3.13;;;;;;;;;;5070385;28;20428;-80
2023/07/03 07:24:52;;;;;;;10.60;2.35;;;;;;;;;;5068545;28;20453;-82
2023/07/03 07:27:18;;;;;;;12.05;2.70;;;;;;;;;;5089335;28;20418;-81
2023/07/03 07:29:44;;;;;;;9.57;2.43;;;;;;;;;;5056325;28;20453;-78
2023/07/03 07:32:10;;;;;;;8.75;2.63;;;;;;;;;;5072139;28;20422;-78
2023/07/03 07:34:36;;;;;;;9.18;2.35;;;;;;;;;;5052330;28;20501;-80
2023/07/03 07:37:02;;;;;;;9.35;2.53;;;;;;;;;;5087974;28;20414;-78
2023/07/03 07:39:29;;;;;;;7.35;2.00;;;;;;;;;;5084675;28;20470;-80
2023/07/03 07:41:56;;;;;;;5.57;1.80;;;;;;;;;;5086958;28;20922;-79
2023/07/03 07:44:22;;;;;;;8.38;1.88;;;;;;;;;;5067256;28;20422;-80
2023/07/03 07:46:48;;;;;;;5.32;1.80;;;;;;;;;;5084244;28;20429;-80
2023/07/03 07:49:14;;;;;;;5.47;1.77;;;;;;;;;;5046891;28;20775;-79
2023/07/03 07:51:41;;;;;;;4.90;1.60;;;;;;;;;;5072160;28;20425;-79
2023/07/03 07:54:07;;;;;;;8.82;2.10;;;;;;;;;;5071670;28;20416;-79
2023/07/03 07:56:33;;;;;;;7.72;1.83;;;;;;;;;;5064501;28;20443;-80
2023/07/03 07:58:59;;;;;;;6.55;1.75;;;;;;;;;;5068067;28;20424;-79
2023/07/03 08:01:25;;;;;;;7.67;1.70;;;;;;;;;;5085163;28;20449;-80
2023/07/03 08:03:52;;;;;;;7.68;2.05;;;;;;;;;;5053723;28;20453;-81
2023/07/03 08:06:18;;;;;;;9.25;2.42;;;;;;;;;;5069791;28;20818;-79
2023/07/03 08:08:44;;;;;;;10.25;1.83;;;;;;;;;;5072267;28;20410;-79
2023/07/03 08:11:10;;;;;;;8.02;2.33;;;;;;;;;;5054118;28;20454;-79
2023/07/03 08:13:39;;;;;;;10.25;2.35;;;17.20;99.90;;;;;;5070034;28;20470;-80
2023/07/03 08:16:05;;;;;;;6.82;1.90;;;;;;;;;;5089783;28;20414;-80
2023/07/03 08:18:31;;;;;;;15.07;2.65;;;;;;;;;;5065836;28;20768;-79
2023/07/03 08:20:57;;;;;;;7.32;1.80;;;;;;;;;;5071757;28;20425;-79
2023/07/03 08:23:24;;;;;;;9.50;2.20;;;;;;;;;;5066309;28;20423;-80
2023/07/03 08:25:51;;;;;;;6.57;1.83;;;;;;;;;;5069016;28;20947;-80
2023/07/03 08:28:17;;;;;;;7.00;1.90;;;;;;;;;;5087295;28;20422;-79
2023/07/03 08:30:43;;;;;;;9.02;2.10;;;;;;;;;;5053162;28;20453;-79
2023/07/03 08:33:09;;;;;;;9.27;1.70;;;;;;;;;;5074321;28;20743;-79
2023/07/03 08:35:35;;;;;;;8.30;1.83;;;;;;;;;;5057332;28;20448;-79
2023/07/03 08:38:02;;;;;;;7.00;1.92;;;;;;;;;;5075626;28;21001;-78
2023/07/03 08:40:28;;;;;;;8.03;1.77;;;;;;;;;;5088483;28;20502;-79
2023/07/03 08:42:59;;;;;;;8.95;2.00;;;17.50;99.90;;;;;;5074122;28;20418;-80
2023/07/03 08:45:29;;;;;;;6.75;1.80;;;;;;;;;;5053106;28;20461;-80
2023/07/03 08:47:56;;;;;;;5.88;1.63;;;;;;;;;;5104446;28;20421;-80
2023/07/03 08:50:23;;;;;;;7.38;1.60;;;;;;;;;;5068953;28;20444;-81
2023/07/03 08:53:04;;;;;;;8.68;1.80;;;;;;;;;;5069893;28;20421;-80
2023/07/03 08:55:45;;;;;;;4.80;1.70;;;;;;;;;;5070926;28;20478;-80
2023/07/03 08:58:11;;;;;;;7.18;1.60;;;;;;;;;;5082100;28;20916;-79
2023/07/03 09:00:42;;;;;;;7.60;1.95;;;;;;;;;;5053302;28;20495;-80
2023/07/03 09:03:18;;;;;;;9.70;1.77;;;;;;;;;;5080641;28;20404;-80
2023/07/03 09:05:56;;;;;;;7.70;1.80;;;;;;;;;;5090444;28;20422;-79
2023/07/03 09:08:40;;;;;;;7.50;1.70;;;;;;;;;;5108271;28;20422;-79
2023/07/03 09:11:06;;;;;;;5.20;1.55;;;;;;;;;;5091929;28;20422;-79
2023/07/03 09:13:46;;;;;;;6.20;1.60;;;;;;;;;;5059743;28;20400;-79
2023/07/03 09:16:22;;;;;;;6.00;1.70;;;;;;;;;;5090564;28;20909;-80
2023/07/03 09:18:49;;;;;;;6.03;1.52;;;;;;;;;;5067858;28;20426;-80
2023/07/03 09:21:15;;;;;;;5.50;1.55;;;;;;;;;;5082773;28;20913;-79
2023/07/03 09:24:01;;;;;;;6.60;1.80;;;;;;;;;;5066345;28;20432;-80
2023/07/03 09:26:33;;;;;;;7.20;1.40;;;;;;;;;;5083993;28;20491;-80
2023/07/03 09:29:00;;;;;;;5.57;1.50;;;18.10;99.90;;;;;;5067472;28;20426;-79
2023/07/03 09:31:27;;;;;;;5.32;1.55;;;17.70;99.90;;;;;;5074068;28;20426;-78
2023/07/03 09:33:53;;;;;;;5.57;1.57;;;;;;;;;;5064191;28;20424;-80
2023/07/03 09:36:40;;;;;;;5.32;1.85;;;;;;;;;;5086370;28;20413;-80
2023/07/03 09:39:12;;;;;;;6.88;1.70;;;17.10;99.90;;;;;;5064620;28;20429;-81
2023/07/03 09:41:38;;;;;;;4.72;1.70;;;;;;;;;;5084207;28;20426;-81
2023/07/03 09:44:10;;;;;;;5.15;1.65;;;;;;;;;;5087150;28;20500;-81
2023/07/03 09:46:38;;;;;;;5.73;1.90;;;;;;;;;;5065000;28;20424;-81
2023/07/03 09:49:06;;;;;;;5.33;1.83;;;;;;;;;;5085935;28;20421;-80
2023/07/03 09:51:34;;;;;;;6.93;1.60;;;;;;;;;;5068159;28;20425;-80
2023/07/03 09:54:06;;;;;;;5.90;1.75;;;;;;;;;;5100324;28;20446;-80
2023/07/03 09:56:32;;;;;;;4.93;1.60;;;;;;;;;;5089433;28;20421;-79
2023/07/03 09:59:03;;;;;;;7.13;1.50;;;;;;;;;;5066393;28;20440;-80
2023/07/03 10:01:31;;;;;;;6.22;1.50;;;;;;;;;;5080823;28;20499;-78
2023/07/03 10:04:07;;;;;;;5.93;1.67;;;;;;;;;;5085279;28;20425;-80
2023/07/03 10:06:33;;;;;;;4.63;1.42;;;;;;;;;;5090162;28;20409;-80
2023/07/03 10:09:01;;;;;;;5.90;1.50;;;;;;;;;;5086042;28;20414;-80
2023/07/03 10:11:41;;;;;;;6.75;2.10;;;;;;;;;;5064940;28;20427;-79
2023/07/03 10:14:09;;;;;;;6.90;1.88;;;;;;;;;;5081351;28;20918;-79
2023/07/03 10:16:36;;;;;;;7.28;1.75;;;;;;;;;;5071046;28;20445;-79
2023/07/03 10:19:03;;;;;;;5.60;1.88;;;;;;;;;;5050990;28;20481;-79
2023/07/03 10:21:30;;;;;;;6.55;1.92;;;;;;;;;;5100446;27;20418;-80
2023/07/03 10:23:57;;;;;;;9.57;2.30;;;;;;;;;;5051404;28;20452;-79
2023/07/03 10:26:26;;;;;;;5.13;1.80;;;;;;;;;;5082276;28;21313;-80
2023/07/03 10:28:56;;;;;;;6.45;2.20;;;;;;;;;;5086538;28;20434;-79
2023/07/03 10:31:33;;;;;;;8.52;2.20;;;17.90;99.90;;;;;;5087107;28;20422;-78
2023/07/03 10:34:20;;;;;;;9.00;1.90;;;;;;;;;;5085621;28;20473;-80
2023/07/03 10:36:49;;;;;;;6.90;2.20;;;;;;;;;;5086613;28;20969;-80
2023/07/03 10:39:28;;;;;;;5.80;1.90;;;;;;;;;;5087502;28;20425;-80
2023/07/03 10:41:57;;;;;;;7.80;2.13;;;;;;;;;;5066181;28;21102;-80
2023/07/03 10:44:26;;;;;;;6.80;2.15;;;;;;;;;;5070522;28;20448;-80
2023/07/03 10:46:58;;;;;;;5.45;1.40;;;;;;;;;;5070637;28;20422;-80
2023/07/03 10:49:32;;;;;;;4.28;1.40;;;;;;;;;;5087517;28;20422;-80
2023/07/03 10:52:05;;;;;;;5.30;1.88;;;;;;;;;;5068456;28;20427;-80
2023/07/03 10:54:44;;;;;;;7.50;1.65;;;;;;;;;;5098258;27;20410;-79
2023/07/03 10:57:16;;;;;;;5.13;1.52;;;;;;;;;;5083277;28;20417;-79
2023/07/03 10:59:44;;;;;;;7.20;1.77;;;;;;;;;;5069323;28;20762;-79
2023/07/03 11:02:15;;;;;;;4.37;1.40;;;;;;;;;;5060955;28;21478;-79
2023/07/03 11:04:44;;;;;;;4.88;1.40;;;;;;;;;;5084917;28;20792;-80
2023/07/03 11:07:31;;;;;;;3.85;1.35;;;;;;;;;;5084460;28;20426;-79
2023/07/03 11:10:05;;;;;;;5.55;1.30;;;;;;;;;;5062804;28;20414;-80
2023/07/03 11:12:34;;;;;;;5.60;1.53;;;;;;;;;;5084496;28;20421;-79
2023/07/03 11:15:19;;;;;;;4.57;1.50;;;;;;;;;;5066680;28;20805;-79
2023/07/03 11:17:48;;;;;;;5.70;1.30;;;;;;;;;;5075387;28;20413;-80
2023/07/03 11:20:25;;;;;;;5.05;1.58;;;;;;;;;;5065473;28;20449;-79
2023/07/03 11:23:13;;;;;;;4.95;1.38;;;;;;;;;;5080661;28;20434;-80
2023/07/03 11:26:03;;;;;;;3.75;1.25;;;19.70;99.90;;;;;;5083594;28;20434;-80
2023/07/03 11:28:41;;;;;;;4.03;1.35;;;19.70;99.90;;;;;;5099329;28;20482;-80
2023/07/03 11:31:09;;;;;;;5.13;1.25;;;;;;;;;;5085096;28;20517;-80
2023/07/03 11:33:35;;;;;;;3.17;1.25;;;19.40;99.90;;;;;;5048503;28;20416;-79
2023/07/03 11:36:05;;;;;;;4.97;1.30;;;;;;;;;;5058119;28;20477;-79
2023/07/03 11:38:31;;;;;;;4.35;1.23;;;;;;;;;;5083724;28;20414;-79
2023/07/03 11:40:59;;;;;;;4.23;1.20;;;;;;;;;;5081573;28;20485;-80
2023/07/03 11:43:36;;;;;;;4.45;1.30;;;;;;;;;;5083451;28;20425;-79
2023/07/03 11:46:08;;;;;;;5.20;1.40;;;;;;;;;;5062840;28;20417;-79
2023/07/03 11:48:37;;;;;;;6.10;1.60;;;;;;;;;;5067210;28;22312;-79
2023/07/03 11:51:03;;;;;;;10.50;1.58;;;;;;;;;;5062338;28;20818;-79
2023/07/03 11:53:32;;;;;;;5.30;1.40;;;;;;;;;;5096639;28;20422;-78
2023/07/03 11:55:59;;;;;;;4.90;1.55;;;;;;;;;;5100468;28;20928;-78
2023/07/03 11:58:26;;;;;;;6.95;1.23;;;;;;;;;;5083227;28;20831;-78
2023/07/03 12:01:31;;;;;;;5.63;1.50;;;18.60;99.90;;;;;;5069516;28;20529;-78
2023/07/03 12:04:02;;;;;;;5.30;1.50;;;;;;;;;;5086525;28;20498;-81
2023/07/03 12:06:40;;;;;;;3.93;1.33;;;;;;;;;;5103093;27;20422;-80
2023/07/03 12:09:19;;;;;;;6.50;1.55;;;;;;;;;;5072936;28;20494;-79
2023/07/03 12:11:57;;;;;;;5.00;1.40;;;;;;;;;;5087022;28;20448;-78
2023/07/03 12:14:56;;;;;;;5.70;1.40;;;18.30;99.90;;;;;;5079723;28;20418;-78
2023/07/03 12:17:27;;;;;;;7.82;1.48;;;18.20;99.90;;;;;;5085570;28;20418;-78
2023/07/03 12:20:05;;;;;;;4.82;1.48;;;18.50;99.90;;;;;;5081544;28;20465;-78
2023/07/03 12:22:35;;;;;;;5.85;1.60;;;;;;;;;;5066570;28;20935;-78
2023/07/03 12:25:10;;;;;;;5.13;1.70;;;18.40;99.90;;;;;;5102578;28;20426;-79
2023/07/03 12:27:37;;;;;;;5.63;1.58;;;;;;;;;;5068976;28;20858;-79
2023/07/03 12:30:05;;;;;;;5.85;1.73;;;;;;;;;;5080792;28;20451;-78
2023/07/03 12:32:33;;;;;;;8.00;1.60;;;;;;;;;;5064983;28;20970;-79
2023/07/03 12:35:28;;;;;;;6.18;1.80;;;;;;;;;;5065917;28;20515;-77
2023/07/03 12:37:55;;;;;;;6.07;1.80;;;;;;;;;;5065628;28;20500;-78
2023/07/03 12:40:22;;;;;;;6.43;1.55;;;;;;;;;;5089446;28;20484;-78
2023/07/03 12:42:52;;;;;;;5.95;1.60;;;18.30;99.90;;;;;;5073004;28;20463;-80
2023/07/03 12:45:23;;;;;;;5.47;1.90;;;;;;;;;;5083950;28;20421;-78
2023/07/03 12:48:01;;;;;;;6.30;1.85;;;;;;;;;;5089151;28;20432;-78
2023/07/03 12:50:27;;;;;;;5.35;1.55;;;;;;;;;;5071061;28;20430;-78
2023/07/03 12:52:57;;;;;;;8.97;2.00;;;;;;;;;;5051425;28;20903;-77
2023/07/03 12:55:24;;;;;;;5.90;1.80;;;;;;;;;;5087743;28;20422;-78
2023/07/03 12:57:52;;;;;;;4.90;1.40;;;;;;;;;;5082374;28;20499;-77
2023/07/03 13:00:24;;;;;;;5.22;1.70;;;;;;;;;;5069246;28;20496;-77
2023/07/03 13:02:50;;;;;;;5.45;1.55;;;;;;;;;;5069885;28;20506;-77
2023/07/03 13:05:22;;;;;;;6.30;1.60;;;;;;;;;;5069970;28;20524;-78
2023/07/03 13:07:49;;;;;;;5.60;1.67;;;;;;;;;;5071695;28;20425;-78
2023/07/03 13:10:17;;;;;;;7.23;2.00;;;;;;;;;;5070565;28;20422;-77
2023/07/03 13:12:43;;;;;;;7.30;1.60;;;;;;;;;;5071131;28;20564;-78
2023/07/03 13:15:11;;;;;;;5.70;1.70;;;;;;;;;;5091014;28;20551;-78
2023/07/03 13:17:43;;;;;;;6.22;1.70;;;;;;;;;;5082746;28;20506;-78
2023/07/03 13:20:15;;;;;;;7.45;1.65;;;;;;;;;;5085043;28;20484;-79
2023/07/03 13:23:03;;;;;;;5.22;1.52;;;;;;;;;;5089888;28;20586;-77
2023/07/03 13:25:29;;;;;;;8.10;1.77;;;;;;;;;;5105504;27;20944;-78
2023/07/03 13:27:56;;;;;;;6.05;1.60;;;;;;;;;;5070492;28;20422;-78
2023/07/03 13:30:24;;;;;;;5.40;1.50;;;;;;;;;;5070539;28;20873;-77
2023/07/03 13:33:00;;;;;;;7.20;1.75;;;;;;;;;;5086933;28;20427;-78
2023/07/03 13:35:28;;;;;;;4.05;1.42;;;;;;;;;;5079024;28;20500;-78
2023/07/03 13:38:08;;;;;;;6.38;1.50;;;;;;;;;;5072037;28;20414;-78
2023/07/03 13:40:34;;;;;;;5.55;1.50;;;;;;;;;;5085899;28;20503;-79
2023/07/03 13:43:01;;;;;;;6.23;1.60;;;;;;;;;;5081501;28;20917;-78
2023/07/03 13:45:28;;;;;;;4.90;1.50;;;;;;;;;;5068451;28;20803;-79
2023/07/03 13:47:54;;;;;;;8.25;1.65;;;;;;;;;;5086348;28;20423;-80
2023/07/03 13:50:20;;;;;;;6.15;1.42;;;;;;;;;;5072017;28;20422;-80
2023/07/03 13:52:46;;;;;;;8.27;1.90;;;;;;;;;;5084796;28;20496;-78
2023/07/03 13:55:12;;;;;;;7.97;1.98;;;;;;;;;;5070769;28;20761;-79
2023/07/03 13:57:38;;;;;;;6.50;1.52;;;;;;;;;;5054732;28;20521;-78
2023/07/03 14:00:04;;;;;;;4.85;1.65;;;;;;;;;;5083263;28;20467;-79
2023/07/03 14:02:31;;;;;;;4.45;1.38;;;;;;;;;;5079154;28;20470;-79
2023/07/03 14:04:57;;;;;;;4.38;1.55;;;;;;;;;;5064349;28;21042;-79
2023/07/03 14:07:23;;;;;;;6.70;1.73;;;;;;;;;;5102701;28;20437;-78
2023/07/03 14:09:49;;;;;;;5.57;1.37;;;;;;;;;;5088204;28;21008;-78
2023/07/03 14:12:15;;;;;;;5.50;1.30;;;;;;;;;;5053892;28;20434;-79
2023/07/03 14:14:41;;;;;;;6.43;1.70;;;;;;;;;;5082511;28;20422;-79
2023/07/03 14:17:07;;;;;;;4.47;1.52;;;;;;;;;;5077781;28;20410;-79
2023/07/03 14:19:33;;;;;;;7.80;1.80;;;;;;;;;;5071076;28;20956;-80
2023/07/03 14:22:00;;;;;;;6.43;1.63;;;;;;;;;;5101072;28;20490;-80
2023/07/03 14:24:26;;;;;;;6.53;1.60;;;;;;;;;;5070469;28;20508;-79
2023/07/03 14:26:52;;;;;;;7.60;1.50;;;;;;;;;;5065566;28;20420;-77
2023/07/03 14:29:19;;;;;;;8.03;1.63;;;;;;;;;;5064337;28;20492;-77
2023/07/03 14:31:45;;;;;;;9.38;1.67;;;;;;;;;;5047539;28;20430;-77